หน้าหลัก
METAR-TAF:

METAR-TAF

ท่าอากาศยาน :

ยาคุตสค์, รัสเซีย

ละติจูด: 62-01N, ลองจิจูด: 129-43E, ความสูง: 103 ม.

การสังเกตสภาพอากาศปัจจุบัน

รายงานได้ทำขึ้นเมื่อ 37 นาทีที่แล้ว ณ เวลา 01:30 UTC
ลม 4 นอตจากเหนือ/ตะวันออกเฉียงเหนือ, แปรผันระหว่างเหนือ และตะวันออก
อุณหภูมิ 21°C
ความชื้น 69%
ความกดอากาศ 1002 hPa
ทัศนวิสัย 10 กม. หรือมากกว่า
มีเมฆกระจายเป็นบางส่วนที่ความสูง 3200 ฟุต

METAR: UEEE 190130Z 03002MPS 360V080 9999 SCT032 21/15 Q1002 R23/09//64 NOSIG RMK QFE743

เวลา: 11:07 (02:07 UTC)

การพยากรณ์

รายงานได้ทำขึ้นเมื่อ 3 ชั่วโมงและ 7 นาทีที่แล้ว ณ เวลา 23:00 UTC
การพยากรณ์มีผลตั้งแต่วันที่ 19 ณ เวลา 00 UTC จนถึงวันที่ 20 ณ เวลา 06 UTC
ลม 6 นอตจากเหนือ/ตะวันออกเฉียงเหนือโดยมีลมกระโชกได้ถึง19 นอต
ทัศนวิสัย 10 กม. หรือมากกว่า
มีเมฆกระจายเป็นบางส่วนที่ความสูง 3000 ฟุต, คิวมูโลนิมบัส.
มีเมฆมาก มืดครึ้มที่ความสูง 7000 ฟุต
ชั่วคราว
ตั้งแต่วันที่ 19 ณ เวลา 00 UTC จนถึงวันที่ 19 ณ เวลา 12 UTC
ทัศนวิสัย: 3200 ม.
ฝนโปรยปรายเล็กน้อย, ควัน,

TAF: UEEE 182300Z 1900/2006 03003G10MPS 9999 SCT030CB OVC070 TEMPO 1900/1912 3200 -SHRA FU

สังเกตการณ์สภาพอากาศและพยากรณ์อากาศของสนามบินมากกว่า 4000 แห่ง (รายงาน METAR และ TAF).

สถานีที่ดูได้จะแสดงไว้ด้วยจุดสีเหลืองและสีแดงบนแผนที่.

เลื่อนเมาส์ไปเหนือจุดเพื่อดูชื่อสถานี.

แล้วคลิกเพื่อดูสังเกตการณ์และการพยากรณ์สภาพอากาศ.

ในการเปลี่ยนแผนที่: คลิกที่ปุ่มสีเขียวที่มีกากบาทสีดำเพื่อซูมเข้า; ที่ปุ่มสีเขียวที่มีขีดเพื่อซูมออก; หรือที่ลูกศรสีเขียวเพื่อไปยังแผนที่ที่อยู่ติดกัน.


METAR-TAF: